sensor_id;sensor_type;location;lat;lon;timestamp;pressure;altitude;pressure_sealevel;temperature
69857;BMP280;57147;53.582;10.112;2023-07-13T00:01:39;100308.03;;;17.16
69857;BMP280;57147;53.582;10.112;2023-07-13T00:06:39;100339.44;;;17.16
69857;BMP280;57147;53.582;10.112;2023-07-13T00:11:43;100346.44;;;17.04
69857;BMP280;57147;53.582;10.112;2023-07-13T00:16:44;100320.56;;;16.96
69857;BMP280;57147;53.582;10.112;2023-07-13T00:21:45;100362.66;;;16.92
69857;BMP280;57147;53.582;10.112;2023-07-13T00:26:49;100388.47;;;16.85
69857;BMP280;57147;53.582;10.112;2023-07-13T00:31:49;100404.94;;;16.55
69857;BMP280;57147;53.582;10.112;2023-07-13T00:36:50;100390.59;;;16.63
69857;BMP280;57147;53.582;10.112;2023-07-13T00:41:53;100344.13;;;16.16
69857;BMP280;57147;53.582;10.112;2023-07-13T00:46:54;100383.97;;;16.45
69857;BMP280;57147;53.582;10.112;2023-07-13T00:51:56;100375.94;;;16.45
69857;BMP280;57147;53.582;10.112;2023-07-13T00:57:03;100407.78;;;16.35
69857;BMP280;57147;53.582;10.112;2023-07-13T01:02:04;100440.50;;;16.28
69857;BMP280;57147;53.582;10.112;2023-07-13T01:07:06;100414.19;;;16.18
69857;BMP280;57147;53.582;10.112;2023-07-13T01:12:10;100384.94;;;16.13
69857;BMP280;57147;53.582;10.112;2023-07-13T01:17:11;100352.81;;;16.13
69857;BMP280;57147;53.582;10.112;2023-07-13T01:22:17;100347.38;;;16.09
69857;BMP280;57147;53.582;10.112;2023-07-13T01:27:22;100322.50;;;16.09
69857;BMP280;57147;53.582;10.112;2023-07-13T01:32:24;100337.84;;;16.12
69857;BMP280;57147;53.582;10.112;2023-07-13T01:37:27;100364.22;;;16.10
69857;BMP280;57147;53.582;10.112;2023-07-13T01:42:28;100361.78;;;16.05
69857;BMP280;57147;53.582;10.112;2023-07-13T01:47:29;100353.56;;;15.86
69857;BMP280;57147;53.582;10.112;2023-07-13T01:52:32;100394.72;;;16.05
69857;BMP280;57147;53.582;10.112;2023-07-13T01:57:33;100379.66;;;15.89
69857;BMP280;57147;53.582;10.112;2023-07-13T02:02:33;100385.91;;;15.93
69857;BMP280;57147;53.582;10.112;2023-07-13T02:07:37;100254.25;;;15.39
69857;BMP280;57147;53.582;10.112;2023-07-13T02:12:37;100280.19;;;15.74
69857;BMP280;57147;53.582;10.112;2023-07-13T02:17:38;100312.53;;;15.82
69857;BMP280;57147;53.582;10.112;2023-07-13T02:22:41;100281.78;;;15.63
69857;BMP280;57147;53.582;10.112;2023-07-13T02:27:41;100309.00;;;15.65
69857;BMP280;57147;53.582;10.112;2023-07-13T02:32:42;100324.34;;;15.81
69857;BMP280;57147;53.582;10.112;2023-07-13T02:37:45;100264.13;;;15.74
69857;BMP280;57147;53.582;10.112;2023-07-13T02:42:46;100275.06;;;15.69
69857;BMP280;57147;53.582;10.112;2023-07-13T02:47:46;100292.56;;;15.67
69857;BMP280;57147;53.582;10.112;2023-07-13T02:52:50;100291.25;;;15.49
69857;BMP280;57147;53.582;10.112;2023-07-13T02:57:50;100301.38;;;15.80
69857;BMP280;57147;53.582;10.112;2023-07-13T03:02:51;100426.06;;;15.81
69857;BMP280;57147;53.582;10.112;2023-07-13T03:07:54;100401.75;;;15.61
69857;BMP280;57147;53.582;10.112;2023-07-13T03:12:54;100441.53;;;15.39
69857;BMP280;57147;53.582;10.112;2023-07-13T03:17:55;100441.78;;;15.58
69857;BMP280;57147;53.582;10.112;2023-07-13T03:22:58;100478.91;;;15.71
69857;BMP280;57147;53.582;10.112;2023-07-13T03:27:59;100519.03;;;15.59
69857;BMP280;57147;53.582;10.112;2023-07-13T03:32:59;100470.72;;;15.44
69857;BMP280;57147;53.582;10.112;2023-07-13T03:38:03;100512.69;;;15.64
69857;BMP280;57147;53.582;10.112;2023-07-13T03:43:03;100527.06;;;15.59
69857;BMP280;57147;53.582;10.112;2023-07-13T03:48:04;100519.91;;;15.51
69857;BMP280;57147;53.582;10.112;2023-07-13T03:53:08;100565.69;;;15.70
69857;BMP280;57147;53.582;10.112;2023-07-13T03:58:29;100562.06;;;15.54
69857;BMP280;57147;53.582;10.112;2023-07-13T04:03:30;100501.38;;;15.46
69857;BMP280;57147;53.582;10.112;2023-07-13T04:08:35;100613.63;;;15.63
69857;BMP280;57147;53.582;10.112;2023-07-13T04:13:36;100559.59;;;15.49
69857;BMP280;57147;53.582;10.112;2023-07-13T04:18:37;100614.88;;;15.45
69857;BMP280;57147;53.582;10.112;2023-07-13T04:23:40;100522.28;;;15.32
69857;BMP280;57147;53.582;10.112;2023-07-13T04:28:41;100640.88;;;15.78
69857;BMP280;57147;53.582;10.112;2023-07-13T04:33:41;100675.28;;;15.88
69857;BMP280;57147;53.582;10.112;2023-07-13T04:38:44;100680.97;;;15.86
69857;BMP280;57147;53.582;10.112;2023-07-13T04:43:45;100698.06;;;15.94
69857;BMP280;57147;53.582;10.112;2023-07-13T04:48:45;100734.84;;;15.85
69857;BMP280;57147;53.582;10.112;2023-07-13T04:53:49;100631.72;;;15.79
69857;BMP280;57147;53.582;10.112;2023-07-13T04:58:49;100727.31;;;15.99
69857;BMP280;57147;53.582;10.112;2023-07-13T05:03:50;100755.38;;;15.93
69857;BMP280;57147;53.582;10.112;2023-07-13T05:08:53;100761.50;;;16.14
69857;BMP280;57147;53.582;10.112;2023-07-13T05:13:53;100713.75;;;16.16
69857;BMP280;57147;53.582;10.112;2023-07-13T05:18:54;100795.09;;;16.44
69857;BMP280;57147;53.582;10.112;2023-07-13T05:23:57;100824.09;;;16.42
69857;BMP280;57147;53.582;10.112;2023-07-13T05:28:58;100987.72;;;16.67
69857;BMP280;57147;53.582;10.112;2023-07-13T05:33:58;100948.75;;;16.48
69857;BMP280;57147;53.582;10.112;2023-07-13T05:39:02;101029.66;;;17.04
69857;BMP280;57147;53.582;10.112;2023-07-13T05:44:04;100960.78;;;16.84
69857;BMP280;57147;53.582;10.112;2023-07-13T05:49:05;101053.75;;;17.13
69857;BMP280;57147;53.582;10.112;2023-07-13T05:54:08;101104.00;;;17.24
69857;BMP280;57147;53.582;10.112;2023-07-13T05:59:09;101059.88;;;17.13
69857;BMP280;57147;53.582;10.112;2023-07-13T06:04:10;101043.53;;;17.27
69857;BMP280;57147;53.582;10.112;2023-07-13T06:09:13;101008.97;;;17.25
69857;BMP280;57147;53.582;10.112;2023-07-13T06:14:13;101038.28;;;17.30
69857;BMP280;57147;53.582;10.112;2023-07-13T06:19:14;101056.22;;;17.50
69857;BMP280;57147;53.582;10.112;2023-07-13T06:24:17;101088.47;;;17.63
69857;BMP280;57147;53.582;10.112;2023-07-13T06:29:18;101101.03;;;17.71
69857;BMP280;57147;53.582;10.112;2023-07-13T06:34:18;101089.81;;;17.69
69857;BMP280;57147;53.582;10.112;2023-07-13T06:39:21;101131.50;;;18.11
69857;BMP280;57147;53.582;10.112;2023-07-13T06:44:22;101128.94;;;18.27
69857;BMP280;57147;53.582;10.112;2023-07-13T06:49:23;101135.78;;;18.24
69857;BMP280;57147;53.582;10.112;2023-07-13T06:54:26;101125.13;;;18.16
69857;BMP280;57147;53.582;10.112;2023-07-13T06:59:26;101180.09;;;18.18
69857;BMP280;57147;53.582;10.112;2023-07-13T07:04:27;101162.84;;;17.95
69857;BMP280;57147;53.582;10.112;2023-07-13T07:09:30;101173.59;;;17.95
69857;BMP280;57147;53.582;10.112;2023-07-13T07:14:31;101128.81;;;17.99
69857;BMP280;57147;53.582;10.112;2023-07-13T07:19:32;101116.72;;;17.93
69857;BMP280;57147;53.582;10.112;2023-07-13T07:24:35;101128.81;;;17.99
69857;BMP280;57147;53.582;10.112;2023-07-13T07:29:36;101124.31;;;17.91
69857;BMP280;57147;53.582;10.112;2023-07-13T07:34:36;101119.94;;;17.86
69857;BMP280;57147;53.582;10.112;2023-07-13T07:39:40;101086.69;;;17.67
69857;BMP280;57147;53.582;10.112;2023-07-13T07:44:41;101067.63;;;17.60
69857;BMP280;57147;53.582;10.112;2023-07-13T07:49:42;101099.25;;;17.99
69857;BMP280;57147;53.582;10.112;2023-07-13T07:54:46;101102.84;;;18.03
69857;BMP280;57147;53.582;10.112;2023-07-13T07:59:46;101056.94;;;18.20
69857;BMP280;57147;53.582;10.112;2023-07-13T08:04:47;101141.25;;;18.28
69857;BMP280;57147;53.582;10.112;2023-07-13T08:09:52;101178.34;;;18.34
69857;BMP280;57147;53.582;10.112;2023-07-13T08:14:53;101108.66;;;17.81
69857;BMP280;57147;53.582;10.112;2023-07-13T08:19:54;101171.59;;;18.16
69857;BMP280;57147;53.582;10.112;2023-07-13T08:24:58;101152.13;;;18.31
69857;BMP280;57147;53.582;10.112;2023-07-13T08:29:59;101187.31;;;18.51
69857;BMP280;57147;53.582;10.112;2023-07-13T08:34:59;101158.13;;;18.77
69857;BMP280;57147;53.582;10.112;2023-07-13T08:40:03;101134.88;;;18.97
69857;BMP280;57147;53.582;10.112;2023-07-13T08:45:11;101194.78;;;19.21
69857;BMP280;57147;53.582;10.112;2023-07-13T08:50:17;101211.13;;;19.56
69857;BMP280;57147;53.582;10.112;2023-07-13T08:55:27;101220.56;;;19.34
69857;BMP280;57147;53.582;10.112;2023-07-13T09:00:36;101167.28;;;19.00
69857;BMP280;57147;53.582;10.112;2023-07-13T09:05:40;101211.16;;;19.28
69857;BMP280;57147;53.582;10.112;2023-07-13T09:10:48;101213.41;;;19.26
69857;BMP280;57147;53.582;10.112;2023-07-13T09:15:50;101228.00;;;19.25
69857;BMP280;57147;53.582;10.112;2023-07-13T09:20:53;101228.47;;;19.15
69857;BMP280;57147;53.582;10.112;2023-07-13T09:26:01;101189.03;;;19.07
69857;BMP280;57147;53.582;10.112;2023-07-13T09:31:05;101221.69;;;19.61
69857;BMP280;57147;53.582;10.112;2023-07-13T09:36:18;101205.75;;;19.56
69857;BMP280;57147;53.582;10.112;2023-07-13T09:41:27;101199.97;;;19.70
69857;BMP280;57147;53.582;10.112;2023-07-13T09:46:29;101203.03;;;19.84
69857;BMP280;57147;53.582;10.112;2023-07-13T09:51:30;101197.75;;;20.03
69857;BMP280;57147;53.582;10.112;2023-07-13T09:56:33;101214.91;;;20.26
69857;BMP280;57147;53.582;10.112;2023-07-13T10:01:35;101208.53;;;20.03
69857;BMP280;57147;53.582;10.112;2023-07-13T10:06:36;101185.84;;;20.04
69857;BMP280;57147;53.582;10.112;2023-07-13T10:11:40;101184.38;;;19.91
69857;BMP280;57147;53.582;10.112;2023-07-13T10:16:42;101208.88;;;20.17
69857;BMP280;57147;53.582;10.112;2023-07-13T10:21:49;101189.75;;;19.91
69857;BMP280;57147;53.582;10.112;2023-07-13T10:27:00;101213.72;;;19.96
69857;BMP280;57147;53.582;10.112;2023-07-13T10:32:01;101204.25;;;19.86
69857;BMP280;57147;53.582;10.112;2023-07-13T10:37:02;101181.31;;;19.93
69857;BMP280;57147;53.582;10.112;2023-07-13T10:42:09;101189.53;;;20.47
69857;BMP280;57147;53.582;10.112;2023-07-13T10:47:14;101207.59;;;20.62
69857;BMP280;57147;53.582;10.112;2023-07-13T10:52:42;101212.63;;;20.79
69857;BMP280;57147;53.582;10.112;2023-07-13T10:57:47;101210.50;;;21.07
69857;BMP280;57147;53.582;10.112;2023-07-13T11:02:56;101214.72;;;21.05
69857;BMP280;57147;53.582;10.112;2023-07-13T11:08:04;101201.38;;;21.34
69857;BMP280;57147;53.582;10.112;2023-07-13T11:18:48;101164.06;;;21.17
69857;BMP280;57147;53.582;10.112;2023-07-13T11:23:53;101217.53;;;21.73
69857;BMP280;57147;53.582;10.112;2023-07-13T11:28:54;101205.41;;;21.86
69857;BMP280;57147;53.582;10.112;2023-07-13T11:34:00;101226.47;;;22.22
69857;BMP280;57147;53.582;10.112;2023-07-13T11:39:04;101223.44;;;22.54
69857;BMP280;57147;53.582;10.112;2023-07-13T11:44:14;101216.66;;;22.67
69857;BMP280;57147;53.582;10.112;2023-07-13T11:49:22;101209.50;;;22.52
69857;BMP280;57147;53.582;10.112;2023-07-13T11:54:26;101242.47;;;22.08
69857;BMP280;57147;53.582;10.112;2023-07-13T11:59:29;101250.16;;;21.83
69857;BMP280;57147;53.582;10.112;2023-07-13T12:04:34;101243.81;;;21.95
69857;BMP280;57147;53.582;10.112;2023-07-13T12:09:35;101248.97;;;21.81
69857;BMP280;57147;53.582;10.112;2023-07-13T12:14:36;101239.47;;;21.49
69857;BMP280;57147;53.582;10.112;2023-07-13T12:19:41;101229.03;;;20.90
69857;BMP280;57147;53.582;10.112;2023-07-13T12:24:43;101244.31;;;20.82
69857;BMP280;57147;53.582;10.112;2023-07-13T12:29:50;100823.28;;;19.37
69857;BMP280;57147;53.582;10.112;2023-07-13T12:35:07;99169.69;;;16.11
69857;BMP280;57147;53.582;10.112;2023-07-13T12:40:13;98761.13;;;15.75
69857;BMP280;57147;53.582;10.112;2023-07-13T12:45:18;98409.19;;;15.49
69857;BMP280;57147;53.582;10.112;2023-07-13T12:50:23;98412.22;;;15.51
69857;BMP280;57147;53.582;10.112;2023-07-13T12:55:28;98645.81;;;16.08
69857;BMP280;57147;53.582;10.112;2023-07-13T13:00:31;98993.56;;;16.42
69857;BMP280;57147;53.582;10.112;2023-07-13T13:05:35;99412.34;;;16.56
69857;BMP280;57147;53.582;10.112;2023-07-13T13:10:35;99689.28;;;16.45
69857;BMP280;57147;53.582;10.112;2023-07-13T13:15:36;99845.56;;;16.33
69857;BMP280;57147;53.582;10.112;2023-07-13T13:20:39;100021.66;;;16.71
69857;BMP280;57147;53.582;10.112;2023-07-13T13:25:42;100183.53;;;16.67
69857;BMP280;57147;53.582;10.112;2023-07-13T13:30:43;100304.31;;;17.05
69857;BMP280;57147;53.582;10.112;2023-07-13T13:35:46;100433.28;;;17.00
69857;BMP280;57147;53.582;10.112;2023-07-13T13:40:46;100556.66;;;17.12
69857;BMP280;57147;53.582;10.112;2023-07-13T13:45:47;100700.59;;;17.20
69857;BMP280;57147;53.582;10.112;2023-07-13T13:50:50;100775.28;;;17.30
69857;BMP280;57147;53.582;10.112;2023-07-13T13:55:51;100847.94;;;17.25
69857;BMP280;57147;53.582;10.112;2023-07-13T14:00:52;100846.59;;;17.43
69857;BMP280;57147;53.582;10.112;2023-07-13T14:05:56;100773.53;;;17.50
69857;BMP280;57147;53.582;10.112;2023-07-13T14:10:57;100494.38;;;17.34
69857;BMP280;57147;53.582;10.112;2023-07-13T14:15:58;99747.72;;;17.64
69857;BMP280;57147;53.582;10.112;2023-07-13T14:21:01;100033.97;;;18.01
69857;BMP280;57147;53.582;10.112;2023-07-13T14:26:02;101184.97;;;17.92
69857;BMP280;57147;53.582;10.112;2023-07-13T14:31:04;100945.59;;;18.33
69857;BMP280;57147;53.582;10.112;2023-07-13T14:36:21;101333.59;;;18.37
69857;BMP280;57147;53.582;10.112;2023-07-13T14:41:23;101345.44;;;18.69
69857;BMP280;57147;53.582;10.112;2023-07-13T14:46:29;101304.88;;;18.99
69857;BMP280;57147;53.582;10.112;2023-07-13T14:51:33;101534.34;;;19.08
69857;BMP280;57147;53.582;10.112;2023-07-13T14:56:34;101592.59;;;19.24
69857;BMP280;57147;53.582;10.112;2023-07-13T15:01:35;101633.06;;;19.16
69857;BMP280;57147;53.582;10.112;2023-07-13T15:06:57;101600.38;;;19.05
69857;BMP280;57147;53.582;10.112;2023-07-13T15:11:58;101518.28;;;18.99
69857;BMP280;57147;53.582;10.112;2023-07-13T15:16:59;101434.53;;;19.25
69857;BMP280;57147;53.582;10.112;2023-07-13T15:22:04;101557.75;;;19.88
69857;BMP280;57147;53.582;10.112;2023-07-13T15:27:10;101593.16;;;19.99
69857;BMP280;57147;53.582;10.112;2023-07-13T15:32:12;101508.03;;;19.74
69857;BMP280;57147;53.582;10.112;2023-07-13T15:37:16;101594.69;;;19.88
69857;BMP280;57147;53.582;10.112;2023-07-13T15:42:19;101607.59;;;19.58
69857;BMP280;57147;53.582;10.112;2023-07-13T15:47:20;101562.00;;;19.29
69857;BMP280;57147;53.582;10.112;2023-07-13T15:52:23;101566.81;;;19.35
69857;BMP280;57147;53.582;10.112;2023-07-13T15:57:24;101597.63;;;19.59
69857;BMP280;57147;53.582;10.112;2023-07-13T16:02:25;101552.25;;;19.61
69857;BMP280;57147;53.582;10.112;2023-07-13T16:07:28;101567.50;;;20.17
69857;BMP280;57147;53.582;10.112;2023-07-13T16:12:28;101527.69;;;20.39
69857;BMP280;57147;53.582;10.112;2023-07-13T16:17:29;101534.84;;;20.47
69857;BMP280;57147;53.582;10.112;2023-07-13T16:22:32;101554.91;;;20.21
69857;BMP280;57147;53.582;10.112;2023-07-13T16:27:33;101564.59;;;20.10
69857;BMP280;57147;53.582;10.112;2023-07-13T16:32:35;101561.69;;;20.15
69857;BMP280;57147;53.582;10.112;2023-07-13T16:37:38;101541.81;;;19.71
69857;BMP280;57147;53.582;10.112;2023-07-13T16:42:39;101555.63;;;19.94
69857;BMP280;57147;53.582;10.112;2023-07-13T16:47:39;101550.78;;;19.63
69857;BMP280;57147;53.582;10.112;2023-07-13T16:52:43;101508.03;;;19.74
69857;BMP280;57147;53.582;10.112;2023-07-13T16:57:45;101517.44;;;19.80
69857;BMP280;57147;53.582;10.112;2023-07-13T17:02:46;101515.88;;;19.30
69857;BMP280;57147;53.582;10.112;2023-07-13T17:07:49;101533.59;;;19.31
69857;BMP280;57147;53.582;10.112;2023-07-13T17:12:51;101512.06;;;19.31
69857;BMP280;57147;53.582;10.112;2023-07-13T17:17:54;101544.50;;;19.59
69857;BMP280;57147;53.582;10.112;2023-07-13T17:22:57;101499.47;;;19.96
69857;BMP280;57147;53.582;10.112;2023-07-13T17:27:58;101531.66;;;20.45
69857;BMP280;57147;53.582;10.112;2023-07-13T17:32:58;101541.41;;;20.89
69857;BMP280;57147;53.582;10.112;2023-07-13T17:38:03;101561.91;;;21.06
69857;BMP280;57147;53.582;10.112;2023-07-13T17:43:04;101532.63;;;21.08
69857;BMP280;57147;53.582;10.112;2023-07-13T17:48:06;101530.28;;;21.06
69857;BMP280;57147;53.582;10.112;2023-07-13T17:53:14;101494.50;;;20.66
69857;BMP280;57147;53.582;10.112;2023-07-13T17:58:15;101527.63;;;20.51
69857;BMP280;57147;53.582;10.112;2023-07-13T18:03:18;101538.03;;;20.24
69857;BMP280;57147;53.582;10.112;2023-07-13T18:08:25;101562.56;;;20.19
69857;BMP280;57147;53.582;10.112;2023-07-13T18:13:27;101539.69;;;19.89
69857;BMP280;57147;53.582;10.112;2023-07-13T18:18:28;101556.41;;;19.95
69857;BMP280;57147;53.582;10.112;2023-07-13T18:23:32;101554.41;;;19.79
69857;BMP280;57147;53.582;10.112;2023-07-13T18:28:33;101564.94;;;19.72
69857;BMP280;57147;53.582;10.112;2023-07-13T18:33:34;101557.44;;;19.78
69857;BMP280;57147;53.582;10.112;2023-07-13T18:38:38;101573.38;;;19.95
69857;BMP280;57147;53.582;10.112;2023-07-13T18:43:38;101565.03;;;19.88
69857;BMP280;57147;53.582;10.112;2023-07-13T18:48:39;101569.53;;;19.72
69857;BMP280;57147;53.582;10.112;2023-07-13T18:53:42;101550.66;;;19.35
69857;BMP280;57147;53.582;10.112;2023-07-13T18:58:43;101555.97;;;19.44
69857;BMP280;57147;53.582;10.112;2023-07-13T19:03:44;101574.59;;;19.61
69857;BMP280;57147;53.582;10.112;2023-07-13T19:08:47;101553.44;;;19.27
69857;BMP280;57147;53.582;10.112;2023-07-13T19:13:48;101541.19;;;18.84
69857;BMP280;57147;53.582;10.112;2023-07-13T19:18:49;101595.34;;;19.04
69857;BMP280;57147;53.582;10.112;2023-07-13T19:23:52;101586.88;;;18.72
69857;BMP280;57147;53.582;10.112;2023-07-13T19:28:54;101525.88;;;18.23
69857;BMP280;57147;53.582;10.112;2023-07-13T19:33:55;101560.63;;;18.28
69857;BMP280;57147;53.582;10.112;2023-07-13T19:38:58;101543.25;;;17.96
69857;BMP280;57147;53.582;10.112;2023-07-13T19:43:59;101532.69;;;17.91
69857;BMP280;57147;53.582;10.112;2023-07-13T19:49:00;101545.78;;;17.92
69857;BMP280;57147;53.582;10.112;2023-07-13T19:54:12;101526.13;;;17.80
69857;BMP280;57147;53.582;10.112;2023-07-13T19:59:26;101517.22;;;17.88
69857;BMP280;57147;53.582;10.112;2023-07-13T20:04:27;101520.19;;;17.95
69857;BMP280;57147;53.582;10.112;2023-07-13T20:09:30;101527.13;;;17.96
69857;BMP280;57147;53.582;10.112;2023-07-13T20:14:30;101532.03;;;17.65
69857;BMP280;57147;53.582;10.112;2023-07-13T20:19:33;101446.88;;;17.27
69857;BMP280;57147;53.582;10.112;2023-07-13T20:24:37;101511.97;;;17.62
69857;BMP280;57147;53.582;10.112;2023-07-13T20:29:38;101518.91;;;17.72
69857;BMP280;57147;53.582;10.112;2023-07-13T20:34:39;101568.84;;;17.64
69857;BMP280;57147;53.582;10.112;2023-07-13T20:39:42;101560.13;;;17.76
69857;BMP280;57147;53.582;10.112;2023-07-13T20:44:43;101535.31;;;17.15
69857;BMP280;57147;53.582;10.112;2023-07-13T20:49:44;101536.56;;;17.26
69857;BMP280;57147;53.582;10.112;2023-07-13T20:54:47;101572.38;;;17.39
69857;BMP280;57147;53.582;10.112;2023-07-13T20:59:51;101532.09;;;17.47
69857;BMP280;57147;53.582;10.112;2023-07-13T21:04:52;101578.50;;;17.57
69857;BMP280;57147;53.582;10.112;2023-07-13T21:09:55;101589.56;;;17.46
69857;BMP280;57147;53.582;10.112;2023-07-13T21:14:57;101570.31;;;17.44
69857;BMP280;57147;53.582;10.112;2023-07-13T21:19:58;101583.25;;;17.42
69857;BMP280;57147;53.582;10.112;2023-07-13T21:25:04;101564.97;;;17.36
69857;BMP280;57147;53.582;10.112;2023-07-13T21:30:13;101545.16;;;16.94
69857;BMP280;57147;53.582;10.112;2023-07-13T21:35:33;101516.25;;;16.82
69857;BMP280;57147;53.582;10.112;2023-07-13T21:40:40;101548.94;;;16.93
69857;BMP280;57147;53.582;10.112;2023-07-13T21:45:41;101525.56;;;16.85
69857;BMP280;57147;53.582;10.112;2023-07-13T21:50:43;101500.31;;;16.86
69857;BMP280;57147;53.582;10.112;2023-07-13T21:55:46;101491.50;;;16.77
69857;BMP280;57147;53.582;10.112;2023-07-13T22:00:47;101483.00;;;16.75
69857;BMP280;57147;53.582;10.112;2023-07-13T22:05:48;101476.66;;;16.71
69857;BMP280;57147;53.582;10.112;2023-07-13T22:10:52;101457.09;;;16.61
69857;BMP280;57147;53.582;10.112;2023-07-13T22:15:52;101391.06;;;16.31
69857;BMP280;57147;53.582;10.112;2023-07-13T22:20:53;101411.38;;;16.49
69857;BMP280;57147;53.582;10.112;2023-07-13T22:25:57;101386.16;;;16.33
69857;BMP280;57147;53.582;10.112;2023-07-13T22:30:59;101358.22;;;16.17
69857;BMP280;57147;53.582;10.112;2023-07-13T22:35:59;101371.97;;;16.24
69857;BMP280;57147;53.582;10.112;2023-07-13T22:41:03;101330.69;;;16.08
69857;BMP280;57147;53.582;10.112;2023-07-13T22:46:03;101298.88;;;15.81
69857;BMP280;57147;53.582;10.112;2023-07-13T22:51:10;101299.50;;;15.95
69857;BMP280;57147;53.582;10.112;2023-07-13T22:56:14;101262.00;;;15.95
69857;BMP280;57147;53.582;10.112;2023-07-13T23:01:17;101226.84;;;15.88
69857;BMP280;57147;53.582;10.112;2023-07-13T23:06:20;101218.53;;;15.81
69857;BMP280;57147;53.582;10.112;2023-07-13T23:11:25;101234.28;;;15.91
69857;BMP280;57147;53.582;10.112;2023-07-13T23:16:27;101191.75;;;15.81
69857;BMP280;57147;53.582;10.112;2023-07-13T23:21:30;101211.75;;;15.92
69857;BMP280;57147;53.582;10.112;2023-07-13T23:26:33;101217.25;;;15.87
69857;BMP280;57147;53.582;10.112;2023-07-13T23:31:34;101191.09;;;15.66
69857;BMP280;57147;53.582;10.112;2023-07-13T23:36:39;101192.22;;;15.74
69857;BMP280;57147;53.582;10.112;2023-07-13T23:41:43;101196.19;;;15.77
69857;BMP280;57147;53.582;10.112;2023-07-13T23:46:46;101200.91;;;15.71
69857;BMP280;57147;53.582;10.112;2023-07-13T23:51:49;101183.56;;;15.68
69857;BMP280;57147;53.582;10.112;2023-07-13T23:56:52;101169.69;;;15.66
